createdAt,value
2019-05-25T00:00:40.739Z,23.30
2019-05-25T00:05:45.771Z,24.50
2019-05-25T00:10:50.940Z,22.75
2019-05-25T00:15:55.991Z,22.98
2019-05-25T00:21:01.017Z,23.98
2019-05-25T00:26:06.082Z,24.72
2019-05-25T00:31:12.222Z,24.40
2019-05-25T00:36:17.405Z,24.87
2019-05-25T00:41:22.561Z,22.50
2019-05-25T00:46:27.612Z,23.00
2019-05-25T00:51:32.696Z,24.20
2019-05-25T00:56:37.750Z,24.37
2019-05-25T01:01:42.831Z,24.60
2019-05-25T01:06:48.002Z,23.25
2019-05-25T01:11:53.030Z,21.60
2019-05-25T01:16:58.079Z,22.20
2019-05-25T01:22:03.653Z,22.33
2019-05-25T01:27:09.042Z,21.60
2019-05-25T01:32:14.417Z,22.60
2019-05-25T01:37:19.455Z,24.57
2019-05-25T01:42:24.602Z,20.57
2019-05-25T01:47:29.624Z,20.48
2019-05-25T01:52:34.663Z,21.97
2019-05-25T01:57:40.762Z,22.27
2019-05-25T02:02:45.799Z,21.52
2019-05-25T02:07:50.840Z,22.60
2019-05-25T02:12:55.971Z,23.47
2019-05-25T02:18:00.994Z,22.80
2019-05-25T02:23:06.431Z,22.60
2019-05-25T02:28:11.464Z,22.75
2019-05-25T02:33:17.591Z,25.23
2019-05-25T02:38:25.431Z,23.02
2019-05-25T02:43:32.253Z,23.27
2019-05-25T02:48:39.707Z,23.65
2019-05-25T02:53:46.329Z,24.43
2019-05-25T02:58:51.326Z,25.12
2019-05-25T03:03:56.378Z,23.40
2019-05-25T03:09:01.797Z,25.60
2019-05-25T03:14:06.946Z,26.15
2019-05-25T03:19:12.314Z,24.70
2019-05-25T03:24:17.365Z,21.67
2019-05-25T03:29:22.426Z,22.65
2019-05-25T03:34:27.515Z,26.27
2019-05-25T03:39:34.031Z,27.00
2019-05-25T03:44:39.076Z,24.85
2019-05-25T03:49:44.138Z,22.15
2019-05-25T03:54:49.249Z,20.72
2019-05-25T03:59:54.254Z,22.93
2019-05-25T04:04:59.299Z,21.67
2019-05-25T04:10:06.065Z,20.15
2019-05-25T04:15:15.592Z,20.37
2019-05-25T04:20:20.651Z,21.70
2019-05-25T04:25:26.039Z,20.32
2019-05-25T04:30:31.105Z,19.25
2019-05-25T04:35:36.217Z,18.70
2019-05-25T04:40:41.341Z,18.62
2019-05-25T04:45:46.479Z,16.75
2019-05-25T04:50:51.522Z,19.00
2019-05-25T04:55:56.611Z,17.82
2019-05-25T05:01:01.691Z,17.35
2019-05-25T05:06:06.779Z,17.83
2019-05-25T05:11:11.789Z,17.52
2019-05-25T05:16:16.904Z,22.60
2019-05-25T05:21:21.891Z,20.27
2019-05-25T05:26:26.975Z,22.45
2019-05-25T05:31:32.333Z,22.13
2019-05-25T05:36:37.897Z,19.63
2019-05-25T05:41:42.949Z,21.52
2019-05-25T05:46:48.092Z,20.70
2019-05-25T05:51:53.773Z,19.17
2019-05-25T05:57:11.613Z,19.23
2019-05-25T06:02:05.492Z,15.27
2019-05-25T06:07:10.554Z,16.45
2019-05-25T06:12:16.031Z,16.85
2019-05-25T06:17:22.104Z,16.95
2019-05-25T06:22:27.159Z,16.40
2019-05-25T06:27:32.710Z,16.32
2019-05-25T06:32:37.794Z,14.78
2019-05-25T06:37:43.158Z,13.77
2019-05-25T06:42:48.268Z,15.00
2019-05-25T06:47:53.303Z,15.60
2019-05-25T06:52:58.370Z,15.83
2019-05-25T06:58:03.482Z,14.63
2019-05-25T07:03:08.535Z,15.63
2019-05-25T07:08:13.747Z,15.90
2019-05-25T07:13:18.852Z,16.02
2019-05-25T07:18:23.867Z,15.60
2019-05-25T07:23:28.936Z,15.97
2019-05-25T07:28:33.966Z,17.55
2019-05-25T07:33:39.014Z,19.30
2019-05-25T07:38:44.099Z,17.20
2019-05-25T07:43:49.551Z,17.25
2019-05-25T07:48:54.630Z,18.05
2019-05-25T07:53:59.679Z,16.85
2019-05-25T07:59:04.736Z,15.32
2019-05-25T08:04:09.952Z,19.40
2019-05-25T08:09:15.054Z,18.00
2019-05-25T08:14:20.126Z,14.30
2019-05-25T08:19:25.145Z,15.20
2019-05-25T08:24:30.269Z,14.47
2019-05-25T08:29:35.627Z,13.77
2019-05-25T08:34:40.702Z,14.37
2019-05-25T08:39:45.865Z,15.30
2019-05-25T08:44:51.233Z,17.23
2019-05-25T08:49:56.443Z,13.53
2019-05-25T08:55:01.535Z,15.23
2019-05-25T09:00:08.598Z,15.70
2019-05-25T09:05:13.755Z,14.50
2019-05-25T09:10:19.528Z,14.68
2019-05-25T09:15:24.830Z,15.00
2019-05-25T09:20:29.857Z,13.88
2019-05-25T09:25:35.075Z,14.93
2019-05-25T09:30:40.045Z,14.55
2019-05-25T09:35:45.416Z,14.60
2019-05-25T09:40:50.476Z,13.97
2019-05-25T09:45:55.529Z,16.80
2019-05-25T09:51:00.620Z,17.20
2019-05-25T09:56:05.643Z,18.10
2019-05-25T10:01:10.749Z,17.53
2019-05-25T10:06:15.755Z,19.00
2019-05-25T10:11:20.849Z,19.83
2019-05-25T10:16:26.239Z,22.05
2019-05-25T10:21:31.330Z,22.48
2019-05-25T10:26:36.421Z,22.47
2019-05-25T10:31:41.504Z,22.90
2019-05-25T10:36:46.541Z,22.43
2019-05-25T10:41:52.699Z,23.18
2019-05-25T10:46:57.830Z,23.30
2019-05-25T10:52:02.817Z,24.47
2019-05-25T10:57:08.977Z,22.62
2019-05-25T11:02:14.018Z,22.07
2019-05-25T11:07:20.709Z,24.00
2019-05-25T11:12:26.192Z,23.95
2019-05-25T11:17:31.299Z,23.90
2019-05-25T11:22:37.438Z,25.40
2019-05-25T11:27:42.427Z,25.12
2019-05-25T11:32:47.457Z,24.80
2019-05-25T11:37:52.545Z,22.77
2019-05-25T11:42:57.649Z,25.72
2019-05-25T11:48:02.692Z,25.70
2019-05-25T11:53:07.750Z,26.95
2019-05-25T11:58:13.487Z,28.23
2019-05-25T12:03:18.943Z,28.32
2019-05-25T12:08:24.097Z,29.05
2019-05-25T12:13:32.062Z,28.45
2019-05-25T12:18:35.942Z,25.70
2019-05-25T12:23:40.973Z,26.52
2019-05-25T12:28:46.557Z,25.13
2019-05-25T12:33:51.647Z,25.93
2019-05-25T12:38:56.715Z,24.30
2019-05-25T12:44:01.843Z,25.13
2019-05-25T12:49:06.991Z,23.40
2019-05-25T12:54:14.022Z,22.93
2019-05-25T12:59:20.283Z,22.85
2019-05-25T13:04:25.320Z,22.62
2019-05-25T13:09:30.334Z,21.90
2019-05-25T13:14:35.345Z,21.10
2019-05-25T13:19:40.380Z,21.57
2019-05-25T13:24:45.494Z,21.70
2019-05-25T13:29:51.112Z,20.72
2019-05-25T13:34:56.357Z,20.20
2019-05-25T13:40:01.452Z,19.60
2019-05-25T13:45:07.979Z,19.07
2019-05-25T13:50:13.578Z,19.50
2019-05-25T13:55:19.035Z,19.03
2019-05-25T14:00:24.146Z,17.90
2019-05-25T14:05:29.323Z,17.77
2019-05-25T14:10:34.411Z,16.95
2019-05-25T14:15:39.540Z,17.20
2019-05-25T14:20:44.883Z,18.20
2019-05-25T14:25:50.039Z,17.80
2019-05-25T14:30:55.110Z,17.92
2019-05-25T14:36:00.329Z,18.60
2019-05-25T14:41:05.413Z,19.07
2019-05-25T14:46:10.469Z,18.25
2019-05-25T14:51:15.941Z,17.50
2019-05-25T14:56:21.013Z,18.15
2019-05-25T15:01:26.126Z,17.57
2019-05-25T15:06:31.162Z,18.10
2019-05-25T15:11:36.326Z,17.92
2019-05-25T15:16:41.423Z,17.80
2019-05-25T15:21:46.962Z,17.75
2019-05-25T15:26:52.383Z,17.92
2019-05-25T15:31:57.823Z,17.43
2019-05-25T15:37:03.265Z,16.50
2019-05-25T15:42:08.913Z,16.50
2019-05-25T15:47:13.979Z,17.37
2019-05-25T15:52:19.388Z,17.67
2019-05-25T15:57:24.819Z,18.37
2019-05-25T16:02:36.674Z,18.10
2019-05-25T16:07:40.834Z,17.85
2019-05-25T16:12:46.297Z,18.17
2019-05-25T16:17:51.385Z,17.27
2019-05-25T16:22:56.490Z,16.10
2019-05-25T16:28:01.561Z,16.42
2019-05-25T16:33:12.484Z,16.23
2019-05-25T16:38:13.371Z,16.00
2019-05-25T16:43:18.533Z,17.60
2019-05-25T16:48:23.875Z,16.80
2019-05-25T16:53:28.999Z,16.55
2019-05-25T16:58:34.021Z,15.18
2019-05-25T17:03:39.025Z,15.43
2019-05-25T17:08:44.105Z,15.13
2019-05-25T17:13:49.165Z,15.20
2019-05-25T17:18:54.396Z,14.53
2019-05-25T17:23:59.530Z,15.53
2019-05-25T17:29:04.579Z,15.73
2019-05-25T17:34:09.649Z,14.70
2019-05-25T17:39:14.750Z,15.07
2019-05-25T17:44:19.971Z,14.18
2019-05-25T17:49:25.124Z,14.78
2019-05-25T17:54:30.337Z,13.58
2019-05-25T17:59:35.449Z,12.85
2019-05-25T18:04:40.637Z,14.40
2019-05-25T18:09:46.023Z,14.83
2019-05-25T18:14:51.115Z,15.50
2019-05-25T18:19:56.281Z,17.30
2019-05-25T18:25:01.424Z,15.18
2019-05-25T18:30:06.991Z,16.23
2019-05-25T18:35:12.135Z,15.37
2019-05-25T18:40:17.456Z,16.00
2019-05-25T18:45:22.619Z,15.23
2019-05-25T18:50:27.765Z,15.80
2019-05-25T18:55:32.965Z,15.93
2019-05-25T19:00:38.273Z,15.53
2019-05-25T19:05:43.430Z,15.83
2019-05-25T19:10:48.541Z,14.80
2019-05-25T19:15:53.822Z,14.18
2019-05-25T19:20:59.195Z,17.00
2019-05-25T19:26:04.438Z,13.30
2019-05-25T19:31:09.624Z,13.98
2019-05-25T19:36:14.805Z,13.65
2019-05-25T19:41:20.043Z,14.30
2019-05-25T19:46:25.157Z,14.13
2019-05-25T19:51:31.089Z,13.60
2019-05-25T19:56:36.300Z,13.35
2019-05-25T20:01:41.573Z,14.28
2019-05-25T20:06:46.644Z,13.30
2019-05-25T20:11:52.245Z,13.22
2019-05-25T20:16:57.321Z,12.53
2019-05-25T20:22:02.385Z,13.15
2019-05-25T20:27:08.673Z,15.17
2019-05-25T20:32:14.017Z,14.23
2019-05-25T20:37:20.145Z,14.20
2019-05-25T20:42:26.336Z,14.03
2019-05-25T20:47:31.877Z,13.03
2019-05-25T20:52:37.002Z,13.67
2019-05-25T20:57:42.071Z,14.05
2019-05-25T21:03:02.013Z,12.68
2019-05-25T21:07:53.925Z,14.33
2019-05-25T21:12:59.069Z,12.77
2019-05-25T21:18:04.189Z,13.70
2019-05-25T21:23:09.225Z,14.60
2019-05-25T21:28:14.331Z,13.50
2019-05-25T21:33:19.359Z,13.40
2019-05-25T21:38:24.517Z,13.00
2019-05-25T21:43:29.565Z,15.03
2019-05-25T21:48:34.640Z,14.87
2019-05-25T21:53:39.905Z,15.97
2019-05-25T21:58:44.986Z,16.12
2019-05-25T22:03:50.206Z,16.80
2019-05-25T22:08:55.222Z,18.92
2019-05-25T22:14:00.352Z,17.15
2019-05-25T22:19:05.387Z,14.90
2019-05-25T22:24:10.513Z,15.50
2019-05-25T22:29:15.589Z,16.45
2019-05-25T22:34:20.632Z,18.10
2019-05-25T22:39:25.662Z,18.45
2019-05-25T22:44:37.185Z,18.05
2019-05-25T22:49:42.294Z,15.50
2019-05-25T22:54:47.489Z,14.30
2019-05-25T22:59:52.523Z,16.23
2019-05-25T23:05:00.044Z,16.73
2019-05-25T23:10:05.914Z,19.98
2019-05-25T23:15:11.159Z,18.85
2019-05-25T23:20:16.275Z,19.90
2019-05-25T23:25:21.304Z,16.30
2019-05-25T23:30:26.522Z,19.67
2019-05-25T23:35:31.674Z,21.83
2019-05-25T23:40:36.675Z,23.02
2019-05-25T23:45:41.814Z,20.10
2019-05-25T23:50:46.867Z,20.17
2019-05-25T23:55:51.913Z,16.95
